createdAt,value
2022-08-02T00:00:14.007Z,17.33
2022-08-02T00:01:14.168Z,17.30
2022-08-02T00:02:14.055Z,17.26
2022-08-02T00:03:14.016Z,17.30
2022-08-02T00:04:13.959Z,17.23
2022-08-02T00:05:14.760Z,17.26
2022-08-02T00:06:13.976Z,17.26
2022-08-02T00:07:13.965Z,17.16
2022-08-02T00:08:14.124Z,17.12
2022-08-02T00:09:13.949Z,17.09
2022-08-02T00:10:13.934Z,17.05
2022-08-02T00:11:13.948Z,17.06
2022-08-02T00:12:14.115Z,16.94
2022-08-02T00:13:13.913Z,16.96
2022-08-02T00:14:13.889Z,16.91
2022-08-02T00:15:16.090Z,16.87
2022-08-02T00:16:16.744Z,16.87
2022-08-02T00:17:13.913Z,16.86
2022-08-02T00:18:13.907Z,16.76
2022-08-02T00:19:13.865Z,16.69
2022-08-02T00:20:13.862Z,16.78
2022-08-02T00:21:13.974Z,16.71
2022-08-02T00:22:14.127Z,16.75
2022-08-02T00:23:13.872Z,16.72
2022-08-02T00:24:29.030Z,16.60
2022-08-02T00:25:14.814Z,16.61
2022-08-02T00:26:13.851Z,16.58
2022-08-02T00:27:13.940Z,16.61
2022-08-02T00:28:13.847Z,16.56
2022-08-02T00:29:13.792Z,16.58
2022-08-02T00:30:13.784Z,16.57
2022-08-02T00:31:13.819Z,16.53
2022-08-02T00:32:13.886Z,16.56
2022-08-02T00:33:13.769Z,16.54
2022-08-02T00:34:28.514Z,16.49
2022-08-02T00:35:14.808Z,16.39
2022-08-02T00:36:13.728Z,16.38
2022-08-02T00:37:13.733Z,16.35
2022-08-02T00:38:13.722Z,16.35
2022-08-02T00:39:34.080Z,16.35
2022-08-02T00:40:14.687Z,16.36
2022-08-02T00:41:13.692Z,16.46
2022-08-02T00:42:14.164Z,16.32
2022-08-02T00:43:13.703Z,16.31
2022-08-02T00:44:13.690Z,16.29
2022-08-02T00:45:13.704Z,16.17
2022-08-02T00:46:13.675Z,16.21
2022-08-02T00:47:19.267Z,16.23
2022-08-02T00:48:14.651Z,16.24
2022-08-02T00:49:13.677Z,16.28
2022-08-02T00:50:13.647Z,16.13
2022-08-02T00:51:13.618Z,16.16
2022-08-02T00:52:13.958Z,16.20
2022-08-02T00:53:13.594Z,16.12
2022-08-02T00:54:13.584Z,16.09
2022-08-02T00:55:13.649Z,16.08
2022-08-02T00:56:14.265Z,15.98
2022-08-02T00:57:13.564Z,16.10
2022-08-02T00:58:13.694Z,15.97
2022-08-02T00:59:13.559Z,16.02
2022-08-02T01:00:13.577Z,15.95
2022-08-02T01:01:13.574Z,16.01
2022-08-02T01:02:14.040Z,15.98
2022-08-02T01:03:13.619Z,15.95
2022-08-02T01:04:13.525Z,16.05
2022-08-02T01:05:13.528Z,16.00
2022-08-02T01:06:13.535Z,15.86
2022-08-02T01:07:14.253Z,15.92
2022-08-02T01:08:14.509Z,15.94
2022-08-02T01:09:13.476Z,15.88
2022-08-02T01:10:14.263Z,15.97
2022-08-02T01:11:13.461Z,15.79
2022-08-02T01:12:14.029Z,15.76
2022-08-02T01:13:13.551Z,15.82
2022-08-02T01:14:13.441Z,15.77
2022-08-02T01:15:13.638Z,15.79
2022-08-02T01:16:13.453Z,15.80
2022-08-02T01:17:13.432Z,15.84
2022-08-02T01:18:13.454Z,15.79
2022-08-02T01:19:16.151Z,15.82
2022-08-02T01:20:13.427Z,15.76
2022-08-02T01:21:13.373Z,15.79
2022-08-02T01:22:13.714Z,15.80
2022-08-02T01:23:13.385Z,15.82
2022-08-02T01:24:13.359Z,15.94
2022-08-02T01:25:13.374Z,15.83
2022-08-02T01:26:13.363Z,15.76
2022-08-02T01:27:13.364Z,15.79
2022-08-02T01:28:13.378Z,15.72
2022-08-02T01:29:13.336Z,15.75
2022-08-02T01:30:13.329Z,15.55
2022-08-02T01:31:13.304Z,15.59
2022-08-02T01:32:13.578Z,15.55
2022-08-02T01:33:13.292Z,15.61
2022-08-02T01:34:14.261Z,15.61
2022-08-02T01:35:13.326Z,15.61
2022-08-02T01:36:13.279Z,15.49
2022-08-02T01:37:13.264Z,15.55
2022-08-02T01:38:13.877Z,15.47
2022-08-02T01:39:26.846Z,15.51
2022-08-02T01:40:14.256Z,15.47
2022-08-02T01:41:13.249Z,15.58
2022-08-02T01:42:13.827Z,15.47
2022-08-02T01:43:13.208Z,15.44
2022-08-02T01:44:13.908Z,15.47
2022-08-02T02:02:22.330Z,15.21
2022-08-02T02:03:22.328Z,15.24
2022-08-02T02:04:22.340Z,15.15
2022-08-02T02:05:22.297Z,15.18
2022-08-02T02:06:22.294Z,15.10
2022-08-02T02:07:22.299Z,15.11
2022-08-02T02:08:27.535Z,15.09
2022-08-02T02:09:23.389Z,15.09
2022-08-02T02:10:23.399Z,15.02
2022-08-02T02:12:13.152Z,15.06
2022-08-02T02:12:24.384Z,15.10
2022-08-02T02:13:55.317Z,15.07
2022-08-02T02:14:24.045Z,15.07
2022-08-02T02:15:23.384Z,15.09
2022-08-02T02:16:23.356Z,14.91
2022-08-02T02:18:10.428Z,15.11
2022-08-02T02:18:24.385Z,15.00
2022-08-02T02:19:23.420Z,14.99
2022-08-02T02:20:23.450Z,14.97
2022-08-02T02:21:23.300Z,14.89
2022-08-02T02:22:23.316Z,14.96
2022-08-02T02:23:25.745Z,14.84
2022-08-02T02:24:23.272Z,14.79
2022-08-02T02:25:24.966Z,14.72
2022-08-02T02:26:31.411Z,14.73
2022-08-02T02:27:24.278Z,14.69
2022-08-02T02:28:23.269Z,14.69
2022-08-02T02:29:23.308Z,14.58
2022-08-02T02:30:23.290Z,14.50
2022-08-02T02:31:23.224Z,14.53
2022-08-02T02:32:23.210Z,14.50
2022-08-02T02:33:27.688Z,14.59
2022-08-02T02:34:25.190Z,14.63
2022-08-02T02:35:23.264Z,14.58
2022-08-02T02:36:23.222Z,14.47
2022-08-02T02:37:24.184Z,14.51
2022-08-02T02:38:23.245Z,14.48
2022-08-02T02:39:23.175Z,14.55
2022-08-02T02:40:23.161Z,14.53
2022-08-02T02:41:23.232Z,14.54
2022-08-02T02:42:23.148Z,14.51
2022-08-02T02:43:23.202Z,14.51
2022-08-02T02:44:23.146Z,14.47
2022-08-02T02:45:23.123Z,14.43
2022-08-02T02:46:23.102Z,14.44
2022-08-02T02:47:23.106Z,14.41
2022-08-02T02:48:24.082Z,14.40
2022-08-02T02:49:23.211Z,14.30
2022-08-02T02:50:23.124Z,14.33
2022-08-02T02:51:23.061Z,14.47
2022-08-02T02:52:23.067Z,14.33
2022-08-02T02:53:23.094Z,14.35
2022-08-02T02:54:29.938Z,14.26
2022-08-02T02:55:24.079Z,14.36
2022-08-02T02:56:23.032Z,14.41
2022-08-02T02:57:23.034Z,14.43
2022-08-02T02:58:28.994Z,14.45
2022-08-02T02:59:24.920Z,14.44
2022-08-02T03:00:23.002Z,14.47
2022-08-02T03:01:55.837Z,14.37
2022-08-02T03:02:23.990Z,14.45
2022-08-02T03:03:22.988Z,14.37
2022-08-02T03:04:23.014Z,14.45
2022-08-02T03:05:22.968Z,14.51
2022-08-02T03:06:23.652Z,14.58
2022-08-02T03:07:22.957Z,14.53
2022-08-02T03:08:22.931Z,14.54
2022-08-02T03:09:22.943Z,14.47
2022-08-02T03:10:23.603Z,14.41
2022-08-02T03:11:24.474Z,14.37
2022-08-02T03:12:30.209Z,14.30
2022-08-02T03:13:24.474Z,14.33
2022-08-02T03:14:23.896Z,14.28
2022-08-02T03:15:22.894Z,14.26
2022-08-02T03:16:23.585Z,14.22
2022-08-02T03:17:23.112Z,14.18
2022-08-02T03:18:23.547Z,14.22
2022-08-02T03:19:22.866Z,14.22
2022-08-02T03:20:24.503Z,14.25
2022-08-02T03:21:23.430Z,14.14
2022-08-02T03:22:23.586Z,14.23
2022-08-02T03:23:22.823Z,14.22
2022-08-02T03:24:27.963Z,14.25
2022-08-02T03:25:23.795Z,14.23
2022-08-02T03:26:22.789Z,14.26
2022-08-02T03:27:22.868Z,14.33
2022-08-02T03:28:22.918Z,14.28
2022-08-02T03:29:22.777Z,14.33
2022-08-02T03:30:22.784Z,14.30
2022-08-02T03:31:22.756Z,14.23
2022-08-02T03:32:22.838Z,14.18
2022-08-02T03:33:22.763Z,14.22
2022-08-02T03:34:22.789Z,14.14
2022-08-02T03:35:24.581Z,14.17
2022-08-02T03:36:23.712Z,14.17
2022-08-02T03:37:22.709Z,14.25
2022-08-02T03:38:22.758Z,14.28
2022-08-02T03:39:23.675Z,14.28
2022-08-02T03:40:22.689Z,14.30
2022-08-02T03:41:22.682Z,14.20
2022-08-02T03:42:22.705Z,14.28
2022-08-02T03:43:22.677Z,14.26
2022-08-02T03:44:22.659Z,14.18
2022-08-02T03:45:22.650Z,14.10
2022-08-02T04:01:37.638Z,13.54
2022-08-02T04:02:38.637Z,13.62
2022-08-02T04:03:38.782Z,13.56
2022-08-02T04:04:38.738Z,13.57
2022-08-02T04:06:00.834Z,13.59
2022-08-02T04:06:39.871Z,13.71
2022-08-02T04:08:32.860Z,13.75
2022-08-02T04:08:39.710Z,13.72
2022-08-02T04:09:39.387Z,13.75
2022-08-02T04:10:38.712Z,13.81
2022-08-02T04:11:38.698Z,13.85
2022-08-02T04:12:38.812Z,14.03
2022-08-02T04:13:38.668Z,14.11
2022-08-02T04:14:38.682Z,14.23
2022-08-02T04:15:38.669Z,14.36
2022-08-02T04:16:38.793Z,14.45
2022-08-02T04:17:38.650Z,14.43
2022-08-02T04:18:38.653Z,14.53
2022-08-02T04:19:38.632Z,14.65
2022-08-02T04:20:38.625Z,14.77
2022-08-02T04:21:48.969Z,14.78
2022-08-02T04:22:39.623Z,15.09
2022-08-02T04:23:38.619Z,15.33
2022-08-02T04:24:38.592Z,15.43
2022-08-02T04:25:40.570Z,15.59
2022-08-02T04:26:38.722Z,15.72
2022-08-02T04:28:15.095Z,15.67
2022-08-02T04:28:39.594Z,15.82
2022-08-02T04:29:38.578Z,15.83
2022-08-02T04:30:38.586Z,15.76
2022-08-02T04:31:38.533Z,15.84
2022-08-02T04:32:38.578Z,15.84
2022-08-02T04:33:38.532Z,15.98
2022-08-02T04:34:38.520Z,16.13
2022-08-02T04:35:38.518Z,16.38
2022-08-02T04:36:38.503Z,16.49
2022-08-02T04:37:38.653Z,16.58
2022-08-02T04:38:39.537Z,16.56
2022-08-02T04:39:38.480Z,16.60
2022-08-02T04:40:38.465Z,16.56
2022-08-02T04:41:41.043Z,16.46
2022-08-02T04:42:39.457Z,16.65
2022-08-02T04:43:38.485Z,16.91
2022-08-02T04:44:38.446Z,17.08
2022-08-02T04:45:38.427Z,17.08
2022-08-02T04:46:39.562Z,16.94
2022-08-02T04:48:02.053Z,16.90
2022-08-02T04:48:40.429Z,16.87
2022-08-02T04:49:38.499Z,16.83
2022-08-02T04:50:38.387Z,16.89
2022-08-02T04:51:38.939Z,16.76
2022-08-02T04:52:41.653Z,16.60
2022-08-02T04:53:39.359Z,16.58
2022-08-02T04:54:38.384Z,16.61
2022-08-02T04:55:38.358Z,16.58
2022-08-02T04:56:39.899Z,16.56
2022-08-02T04:57:38.327Z,16.60
2022-08-02T04:58:40.896Z,16.61
2022-08-02T04:59:39.331Z,16.60
2022-08-02T05:00:38.377Z,16.66
2022-08-02T05:01:38.331Z,16.60
2022-08-02T05:02:38.296Z,16.60
2022-08-02T05:03:38.286Z,16.51
2022-08-02T05:04:38.308Z,16.72
2022-08-02T05:05:38.277Z,16.58
2022-08-02T05:06:38.328Z,16.35
2022-08-02T05:07:38.251Z,16.28
2022-08-02T05:08:38.358Z,16.21
2022-08-02T05:09:38.253Z,16.23
2022-08-02T05:10:38.235Z,16.17
2022-08-02T05:11:38.326Z,16.31
2022-08-02T05:12:38.229Z,16.35
2022-08-02T05:13:57.509Z,16.42
2022-08-02T05:14:39.199Z,16.46
2022-08-02T05:15:38.182Z,16.53
2022-08-02T05:16:38.204Z,16.84
2022-08-02T05:17:38.171Z,17.12
2022-08-02T05:18:38.159Z,17.30
2022-08-02T05:19:38.153Z,17.57
2022-08-02T05:20:38.164Z,17.71
2022-08-02T05:21:38.912Z,17.83
2022-08-02T05:22:38.132Z,18.03
2022-08-02T05:23:38.147Z,18.18
2022-08-02T05:24:38.788Z,18.60
2022-08-02T05:25:38.791Z,18.86
2022-08-02T05:26:38.147Z,19.04
2022-08-02T05:27:38.140Z,19.29
2022-08-02T05:28:38.098Z,19.70
2022-08-02T05:29:38.078Z,20.22
2022-08-02T05:30:38.076Z,20.72
2022-08-02T05:31:38.151Z,21.07
2022-08-02T05:32:38.055Z,21.40
2022-08-02T05:33:38.081Z,21.57
2022-08-02T05:34:38.038Z,21.48
2022-08-02T05:35:38.033Z,21.00
2022-08-02T05:36:38.059Z,21.45
2022-08-02T05:37:38.188Z,21.82
2022-08-02T05:38:38.113Z,21.66
2022-08-02T05:39:38.025Z,21.67
2022-08-02T05:40:40.763Z,21.80
2022-08-02T05:41:39.009Z,21.43
2022-08-02T05:42:37.965Z,21.35
2022-08-02T05:43:37.965Z,21.54
2022-08-02T05:44:37.972Z,21.64
2022-08-02T05:45:38.006Z,21.60
2022-08-02T05:46:37.939Z,20.92
2022-08-02T05:47:37.952Z,20.67
2022-08-02T05:48:37.924Z,20.14
2022-08-02T05:49:37.989Z,19.47
2022-08-02T05:50:37.928Z,19.26
2022-08-02T05:51:37.897Z,18.99
2022-08-02T05:52:37.895Z,18.90
2022-08-02T05:53:37.923Z,19.11
2022-08-02T05:54:39.532Z,19.24
2022-08-02T05:55:38.884Z,19.18
2022-08-02T05:56:37.889Z,19.40
2022-08-02T05:57:43.561Z,19.58
2022-08-02T05:58:38.873Z,19.41
2022-08-02T05:59:37.831Z,19.44
2022-08-02T06:00:37.863Z,19.69
2022-08-02T06:01:38.545Z,19.94
2022-08-02T06:02:37.840Z,20.11
2022-08-02T06:03:37.806Z,20.37
2022-08-02T06:04:37.803Z,20.67
2022-08-02T06:05:37.794Z,20.85
2022-08-02T06:06:38.308Z,21.14
2022-08-02T06:07:37.810Z,21.60
2022-08-02T06:08:37.764Z,22.08
2022-08-02T06:09:37.767Z,22.57
2022-08-02T06:10:38.303Z,23.09
2022-08-02T06:11:37.731Z,23.61
2022-08-02T06:12:37.833Z,23.87
2022-08-02T06:13:37.732Z,24.36
2022-08-02T06:14:37.737Z,25.03
2022-08-02T06:15:38.899Z,25.72
2022-08-02T06:16:42.515Z,25.54
2022-08-02T06:17:41.873Z,25.35
2022-08-02T06:18:39.330Z,24.81
2022-08-02T06:19:52.439Z,23.55
2022-08-02T06:20:38.701Z,22.62
2022-08-02T06:22:34.751Z,22.33
2022-08-02T06:22:38.698Z,22.66
2022-08-02T06:23:37.859Z,22.60
2022-08-02T06:24:37.653Z,22.63
2022-08-02T06:25:48.135Z,23.56
2022-08-02T06:26:38.632Z,23.32
2022-08-02T06:27:37.628Z,22.90
2022-08-02T06:28:37.626Z,23.13
2022-08-02T06:29:39.162Z,22.18
2022-08-02T06:30:38.597Z,22.26
2022-08-02T06:31:37.606Z,22.15
2022-08-02T06:32:37.603Z,22.06
2022-08-02T06:33:37.615Z,21.27
2022-08-02T06:34:37.577Z,21.35
2022-08-02T06:35:38.323Z,22.14
2022-08-02T06:36:38.574Z,22.39
2022-08-02T06:37:37.640Z,22.80
2022-08-02T06:38:37.599Z,23.03
2022-08-02T06:39:38.440Z,22.59
2022-08-02T06:40:37.530Z,22.87
2022-08-02T06:41:37.526Z,23.68
2022-08-02T06:42:38.468Z,24.30
2022-08-02T06:43:37.608Z,24.76
2022-08-02T06:44:55.654Z,25.55
2022-08-02T06:45:39.496Z,25.18
2022-08-02T06:47:09.632Z,24.66
2022-08-02T06:47:38.479Z,23.02
2022-08-02T06:48:37.512Z,22.57
2022-08-02T06:49:52.326Z,22.73
2022-08-02T06:50:39.313Z,22.57
2022-08-02T06:51:37.485Z,23.24
2022-08-02T06:52:37.434Z,23.74
2022-08-02T06:53:38.320Z,24.14
2022-08-02T06:54:37.428Z,24.47
2022-08-02T06:55:43.556Z,24.21
2022-08-02T06:56:38.437Z,24.32
2022-08-02T06:57:37.521Z,24.43
2022-08-02T06:58:37.393Z,24.28
2022-08-02T06:59:37.397Z,24.06
2022-08-02T07:00:37.396Z,23.69
2022-08-02T07:01:38.961Z,23.73
2022-08-02T07:02:37.397Z,24.53
2022-08-02T07:03:37.394Z,25.36
2022-08-02T07:04:37.353Z,25.93
2022-08-02T07:05:37.354Z,25.46
2022-08-02T07:06:37.512Z,25.47
2022-08-02T07:07:37.361Z,25.69
2022-08-02T07:08:37.333Z,26.07
2022-08-02T07:09:37.317Z,26.31
2022-08-02T07:10:37.314Z,26.48
2022-08-02T07:11:37.330Z,27.10
2022-08-02T07:12:37.327Z,27.64
2022-08-02T07:13:39.811Z,27.48
2022-08-02T07:14:38.288Z,26.21
2022-08-02T07:15:37.313Z,25.40
2022-08-02T07:16:37.303Z,24.89
2022-08-02T07:17:37.297Z,24.85
2022-08-02T07:18:37.255Z,25.66
2022-08-02T07:19:37.839Z,25.93
2022-08-02T07:20:37.244Z,26.06
2022-08-02T07:21:55.959Z,26.75
2022-08-02T07:22:38.266Z,27.03
2022-08-02T07:23:37.293Z,27.22
2022-08-02T07:24:37.223Z,27.82
2022-08-02T07:26:04.080Z,28.00
2022-08-02T07:26:55.182Z,28.48
2022-08-02T07:27:39.294Z,28.29
2022-08-02T07:28:37.205Z,27.83
2022-08-02T07:29:45.003Z,27.65
2022-08-02T07:30:38.244Z,27.58
2022-08-02T07:31:37.185Z,28.10
2022-08-02T07:32:37.177Z,28.70
2022-08-02T07:33:40.089Z,29.02
2022-08-02T07:34:37.169Z,29.53
2022-08-02T07:35:37.171Z,29.75
2022-08-02T07:36:37.143Z,29.95
2022-08-02T07:37:54.765Z,30.47
2022-08-02T07:38:38.259Z,31.06
2022-08-02T07:39:37.128Z,31.21
2022-08-02T07:40:38.125Z,31.46
2022-08-02T07:41:37.109Z,32.04
2022-08-02T07:42:37.087Z,31.10
2022-08-02T07:43:37.844Z,30.19
2022-08-02T07:44:37.070Z,29.10
2022-08-02T07:45:45.658Z,28.12
2022-08-02T07:46:38.082Z,27.77
2022-08-02T07:47:37.072Z,28.05
2022-08-02T07:48:37.195Z,27.51
2022-08-02T07:49:37.076Z,27.90
2022-08-02T07:50:37.083Z,28.85
2022-08-02T07:51:37.028Z,28.60
2022-08-02T07:52:37.022Z,28.60
2022-08-02T07:53:51.043Z,28.19
2022-08-02T07:54:38.016Z,27.77
2022-08-02T07:55:40.416Z,27.63
2022-08-02T07:56:37.038Z,27.26
2022-08-02T07:57:37.005Z,26.89
2022-08-02T07:58:36.984Z,27.35
2022-08-02T07:59:36.973Z,26.62
2022-08-02T08:00:36.977Z,25.93
2022-08-02T08:01:37.899Z,25.28
2022-08-02T08:02:37.957Z,25.36
2022-08-02T08:03:37.959Z,25.72
2022-08-02T08:04:36.977Z,25.59
2022-08-02T08:05:36.973Z,25.98
2022-08-02T08:06:36.963Z,26.28
2022-08-02T08:07:36.944Z,26.88
2022-08-02T08:08:36.938Z,27.70
2022-08-02T08:09:36.909Z,27.45
2022-08-02T08:10:36.981Z,28.02
2022-08-02T08:11:36.907Z,28.37
2022-08-02T08:12:36.918Z,28.47
2022-08-02T08:14:12.139Z,29.34
2022-08-02T08:14:37.902Z,30.19
2022-08-02T08:15:36.877Z,29.95
2022-08-02T08:16:36.885Z,30.23
2022-08-02T08:17:36.899Z,29.31
2022-08-02T08:18:36.867Z,28.81
2022-08-02T08:19:50.977Z,27.89
2022-08-02T08:20:37.868Z,27.08
2022-08-02T08:21:36.875Z,27.95
2022-08-02T08:22:36.854Z,28.27
2022-08-02T08:23:36.810Z,28.60
2022-08-02T08:24:36.837Z,28.85
2022-08-02T08:25:39.681Z,28.62
2022-08-02T08:26:36.793Z,28.79
2022-08-02T08:27:36.833Z,29.14
2022-08-02T08:28:36.908Z,28.38
2022-08-02T08:29:36.855Z,28.79
2022-08-02T08:30:37.781Z,28.05
2022-08-02T08:31:36.762Z,27.48
2022-08-02T08:32:36.793Z,27.48
2022-08-02T08:33:36.760Z,28.41
2022-08-02T08:34:36.758Z,28.20
2022-08-02T08:35:36.743Z,28.88
2022-08-02T08:36:36.830Z,29.20
2022-08-02T08:37:36.742Z,29.26
2022-08-02T08:38:36.714Z,29.65
2022-08-02T08:39:36.710Z,30.21
2022-08-02T08:40:37.721Z,30.75
2022-08-02T08:41:36.684Z,29.66
2022-08-02T08:42:36.681Z,29.44
2022-08-02T08:43:36.667Z,29.86
2022-08-02T08:44:36.683Z,29.26
2022-08-02T08:45:36.737Z,29.01
2022-08-02T08:46:39.181Z,29.45
2022-08-02T08:47:36.664Z,29.57
2022-08-02T08:48:36.644Z,28.48
2022-08-02T08:49:36.634Z,28.94
2022-08-02T08:50:36.658Z,29.94
2022-08-02T08:51:36.629Z,30.39
2022-08-02T08:52:36.625Z,30.72
2022-08-02T08:53:37.108Z,31.14
2022-08-02T08:54:36.624Z,31.09
2022-08-02T08:55:36.600Z,31.28
2022-08-02T08:56:36.645Z,31.70
2022-08-02T08:57:37.479Z,32.11
2022-08-02T08:58:36.608Z,32.56
2022-08-02T08:59:39.208Z,32.60
2022-08-02T09:00:36.618Z,32.90
2022-08-02T09:01:50.165Z,31.94
2022-08-02T09:02:37.557Z,31.02
2022-08-02T09:03:36.554Z,30.03
2022-08-02T09:04:36.538Z,30.63
2022-08-02T09:05:37.335Z,31.42
2022-08-02T09:06:36.524Z,31.87
2022-08-02T09:07:36.507Z,30.90
2022-08-02T09:08:36.552Z,30.57
2022-08-02T09:09:36.503Z,30.02
2022-08-02T09:10:36.531Z,30.68
2022-08-02T09:11:36.490Z,30.99
2022-08-02T09:12:36.495Z,31.65
2022-08-02T09:13:45.372Z,32.11
2022-08-02T09:14:37.485Z,32.45
2022-08-02T09:15:36.467Z,32.46
2022-08-02T09:16:37.532Z,32.53
2022-08-02T09:17:36.438Z,32.55
2022-08-02T09:18:37.486Z,32.46
2022-08-02T09:19:37.516Z,31.24
2022-08-02T09:20:36.443Z,29.79
2022-08-02T09:21:36.425Z,28.69
2022-08-02T09:22:37.058Z,28.20
2022-08-02T09:23:36.436Z,28.91
2022-08-02T09:24:36.436Z,28.70
2022-08-02T09:25:36.391Z,29.05
2022-08-02T09:26:36.380Z,28.93
2022-08-02T09:27:36.378Z,29.65
2022-08-02T09:28:36.388Z,30.34
2022-08-02T09:29:48.633Z,31.25
2022-08-02T09:30:38.356Z,32.03
2022-08-02T09:31:36.370Z,32.67
2022-08-02T09:32:36.347Z,32.90
2022-08-02T09:33:36.337Z,33.01
2022-08-02T09:34:36.352Z,32.82
2022-08-02T09:36:07.270Z,32.46
2022-08-02T09:36:37.338Z,32.18
2022-08-02T09:37:36.319Z,31.93
2022-08-02T09:38:36.315Z,32.08
2022-08-02T09:39:36.317Z,31.33
2022-08-02T09:40:37.340Z,30.85
2022-08-02T09:41:36.297Z,30.97
2022-08-02T09:42:36.284Z,31.40
2022-08-02T09:43:36.284Z,31.43
2022-08-02T09:44:36.293Z,30.21
2022-08-02T09:45:36.266Z,28.74
2022-08-02T09:46:36.288Z,28.81
2022-08-02T09:47:37.356Z,29.78
2022-08-02T09:48:36.233Z,30.69
2022-08-02T09:49:36.320Z,31.27
2022-08-02T09:50:36.243Z,31.24
2022-08-02T09:51:36.239Z,30.27
2022-08-02T09:52:43.237Z,29.86
2022-08-02T09:53:37.223Z,30.28
2022-08-02T09:54:36.225Z,29.82
2022-08-02T09:55:36.211Z,30.02
2022-08-02T09:56:36.192Z,30.02
2022-08-02T09:57:36.227Z,30.05
2022-08-02T09:58:37.518Z,29.19
2022-08-02T09:59:36.174Z,28.17
2022-08-02T10:00:51.853Z,27.86
2022-08-02T10:01:39.001Z,28.19
2022-08-02T10:02:36.205Z,29.22
2022-08-02T10:03:37.378Z,29.60
2022-08-02T10:04:52.063Z,30.37
2022-08-02T10:05:42.758Z,31.09
2022-08-02T10:06:37.181Z,31.66
2022-08-02T10:07:36.129Z,31.89
2022-08-02T10:08:36.112Z,32.15
2022-08-02T10:09:40.148Z,32.36
2022-08-02T10:10:37.093Z,32.85
2022-08-02T10:11:36.089Z,32.89
2022-08-02T10:12:36.101Z,32.73
2022-08-02T10:13:36.085Z,32.49
2022-08-02T10:14:36.077Z,32.18
2022-08-02T10:15:36.051Z,31.92
2022-08-02T10:16:36.047Z,32.19
2022-08-02T10:17:36.049Z,32.30
2022-08-02T10:18:39.533Z,32.49
2022-08-02T10:20:00.080Z,32.71
2022-08-02T10:20:38.386Z,33.00
2022-08-02T10:21:36.026Z,32.48
2022-08-02T10:22:36.028Z,32.36
2022-08-02T10:23:36.021Z,32.09
2022-08-02T10:24:36.040Z,32.04
2022-08-02T10:25:35.989Z,31.81
2022-08-02T10:26:36.018Z,31.62
2022-08-02T10:28:02.613Z,31.76
2022-08-02T10:28:37.977Z,32.15
2022-08-02T10:29:43.960Z,32.38
2022-08-02T10:30:36.973Z,32.36
2022-08-02T10:31:35.947Z,32.41
2022-08-02T10:32:35.934Z,32.48
2022-08-02T10:33:35.938Z,32.49
2022-08-02T10:34:35.922Z,32.27
2022-08-02T10:35:35.926Z,32.34
2022-08-02T10:36:35.911Z,32.37
2022-08-02T10:37:35.931Z,31.93
2022-08-02T10:38:35.943Z,32.43
2022-08-02T10:39:35.921Z,32.71
2022-08-02T10:40:35.964Z,32.85
2022-08-02T10:41:35.889Z,32.97
2022-08-02T10:42:35.865Z,32.92
2022-08-02T10:43:35.877Z,32.93
2022-08-02T10:44:35.850Z,32.70
2022-08-02T10:45:35.867Z,32.09
2022-08-02T10:46:35.864Z,31.85
2022-08-02T10:47:35.855Z,31.80
2022-08-02T10:48:35.853Z,31.76
2022-08-02T10:49:39.584Z,31.93
2022-08-02T10:50:36.846Z,32.19
2022-08-02T10:51:35.865Z,32.04
2022-08-02T10:52:35.806Z,32.15
2022-08-02T10:53:35.799Z,32.07
2022-08-02T10:54:35.786Z,31.99
2022-08-02T10:55:35.776Z,30.61
2022-08-02T10:56:35.782Z,30.46
2022-08-02T10:57:35.775Z,30.72
2022-08-02T10:58:35.755Z,30.96
2022-08-02T10:59:36.297Z,31.47
2022-08-02T11:00:36.531Z,31.74
2022-08-02T11:01:38.269Z,31.64
2022-08-02T11:02:35.780Z,31.56
2022-08-02T11:03:39.304Z,31.47
2022-08-02T11:04:36.524Z,31.64
2022-08-02T11:05:43.283Z,31.90
2022-08-02T11:06:36.719Z,31.58
2022-08-02T11:07:36.529Z,31.73
2022-08-02T11:08:35.707Z,32.19
2022-08-02T11:09:35.771Z,32.15
2022-08-02T11:10:35.668Z,32.19
2022-08-02T11:11:54.258Z,32.09
2022-08-02T11:12:36.723Z,30.81
2022-08-02T11:13:36.538Z,30.44
2022-08-02T11:14:35.675Z,30.59
2022-08-02T11:15:35.675Z,30.94
2022-08-02T11:16:35.633Z,29.97
2022-08-02T11:17:38.245Z,30.48
2022-08-02T11:18:36.647Z,30.91
2022-08-02T11:19:35.620Z,31.36
2022-08-02T11:20:36.614Z,31.71
2022-08-02T11:21:35.636Z,31.39
2022-08-02T11:22:36.535Z,31.40
2022-08-02T11:23:44.219Z,31.56
2022-08-02T11:24:36.594Z,32.16
2022-08-02T11:26:02.145Z,32.34
2022-08-02T11:26:37.559Z,32.33
2022-08-02T11:27:35.627Z,32.37
2022-08-02T11:28:35.556Z,31.74
2022-08-02T11:29:38.410Z,31.51
2022-08-02T11:30:35.570Z,31.37
2022-08-02T11:31:35.542Z,31.43
2022-08-02T11:32:35.548Z,31.51
2022-08-02T11:33:35.530Z,31.94
2022-08-02T11:34:37.320Z,30.21
2022-08-02T11:35:35.527Z,29.05
2022-08-02T11:36:35.557Z,28.70
2022-08-02T11:37:36.068Z,29.22
2022-08-02T11:38:35.493Z,29.44
2022-08-02T11:39:35.503Z,29.47
2022-08-02T11:40:35.627Z,29.91
2022-08-02T11:41:46.284Z,29.94
2022-08-02T11:42:36.483Z,30.23
2022-08-02T11:43:35.444Z,30.97
2022-08-02T11:44:35.448Z,31.31
2022-08-02T11:45:36.458Z,30.43
2022-08-02T11:46:35.455Z,31.02
2022-08-02T11:47:35.434Z,30.92
2022-08-02T11:48:35.477Z,30.78
2022-08-02T11:49:35.559Z,31.09
2022-08-02T11:50:35.416Z,31.52
2022-08-02T11:51:35.400Z,32.09
2022-08-02T11:52:35.429Z,32.30
2022-08-02T11:53:35.402Z,31.99
2022-08-02T11:54:36.392Z,32.41
2022-08-02T11:55:35.397Z,32.63
2022-08-02T11:56:35.378Z,32.93
2022-08-02T11:58:02.825Z,33.09
2022-08-02T11:58:36.391Z,33.22
2022-08-02T11:59:35.381Z,33.24
2022-08-02T12:00:35.334Z,33.01
2022-08-02T12:01:36.866Z,32.83
2022-08-02T12:02:36.342Z,32.49
2022-08-02T12:03:35.392Z,32.11
2022-08-02T12:04:35.305Z,31.76
2022-08-02T12:06:37.326Z,31.70
2022-08-02T12:07:36.206Z,31.55
2022-08-02T12:08:35.311Z,31.61
2022-08-02T12:09:40.626Z,31.33
2022-08-02T12:10:37.293Z,30.37
2022-08-02T12:11:38.745Z,30.97
2022-08-02T12:12:35.275Z,31.62
2022-08-02T12:13:35.295Z,31.90
2022-08-02T12:14:35.254Z,32.16
2022-08-02T12:15:35.290Z,31.52
2022-08-02T12:16:35.237Z,31.33
2022-08-02T12:17:35.237Z,31.69
2022-08-02T12:18:35.243Z,32.27
2022-08-02T12:19:35.227Z,32.41
2022-08-02T12:20:35.248Z,32.38
2022-08-02T12:21:35.231Z,32.31
2022-08-02T12:22:38.847Z,32.37
2022-08-02T12:23:37.208Z,32.74
2022-08-02T12:24:36.188Z,32.95
2022-08-02T12:25:35.588Z,33.27
2022-08-02T12:26:36.188Z,32.70
2022-08-02T12:27:35.219Z,32.12
2022-08-02T12:28:35.159Z,31.66
2022-08-02T12:29:58.045Z,31.77
2022-08-02T12:30:36.137Z,32.26
2022-08-02T12:31:35.130Z,32.59
2022-08-02T12:32:36.177Z,32.75
2022-08-02T12:33:39.131Z,32.89
2022-08-02T12:34:36.162Z,33.04
2022-08-02T12:35:35.101Z,32.52
2022-08-02T12:36:35.111Z,31.64
2022-08-02T12:37:35.105Z,31.96
2022-08-02T12:38:35.106Z,32.18
2022-08-02T12:39:35.140Z,32.33
2022-08-02T12:40:35.125Z,32.14
2022-08-02T12:41:35.088Z,31.66
2022-08-02T12:42:35.105Z,32.11
2022-08-02T12:43:35.097Z,32.23
2022-08-02T12:44:35.078Z,32.48
2022-08-02T12:45:39.181Z,32.58
2022-08-02T12:46:41.940Z,32.48
2022-08-02T12:47:36.303Z,32.89
2022-08-02T12:48:37.332Z,32.93
2022-08-02T12:49:36.119Z,33.30
2022-08-02T12:50:35.032Z,32.95
2022-08-02T12:51:55.561Z,32.41
2022-08-02T12:52:36.024Z,32.22
2022-08-02T12:53:36.014Z,32.11
2022-08-02T12:54:36.088Z,32.08
2022-08-02T12:56:01.308Z,32.03
2022-08-02T12:56:36.021Z,31.56
2022-08-02T12:57:39.367Z,31.28
2022-08-02T12:58:36.980Z,31.62
2022-08-02T12:59:38.404Z,31.87
2022-08-02T13:00:34.952Z,32.38
2022-08-02T13:01:34.994Z,32.93
2022-08-02T13:02:34.984Z,33.20
2022-08-02T13:04:09.109Z,32.14
2022-08-02T13:04:35.930Z,31.24
2022-08-02T13:05:56.529Z,30.43
2022-08-02T13:06:45.104Z,30.43
2022-08-02T13:07:36.906Z,30.28
2022-08-02T13:08:34.970Z,30.12
2022-08-02T13:09:34.909Z,30.44
2022-08-02T13:10:34.910Z,30.65
2022-08-02T13:11:34.915Z,30.97
2022-08-02T13:12:34.926Z,31.22
2022-08-02T13:13:34.883Z,31.39
2022-08-02T13:14:40.413Z,31.80
2022-08-02T13:15:49.687Z,32.37
2022-08-02T13:16:35.907Z,32.77
2022-08-02T13:17:34.821Z,33.07
2022-08-02T13:18:34.832Z,33.07
2022-08-02T13:19:34.864Z,33.31
2022-08-02T13:20:34.814Z,33.39
2022-08-02T13:21:40.988Z,33.30
2022-08-02T13:22:35.809Z,33.49
2022-08-02T13:23:54.070Z,33.55
2022-08-02T13:24:41.023Z,33.42
2022-08-02T13:25:35.778Z,33.23